Time;durP1;ratioP1;P1;durP2;ratioP2;P2;SDS_P1;SDS_P2;PMS_P1;PMS_P2;Temp;Humidity;BMP_temperature;BMP_pressure;BME280_temperature;BME280_humidity;BME280_pressure;Samples;Min_cycle;Max_cycle;Signal;HPM_P1;HPM_P2
2022/09/12 00:01:11;;;;;;;24.27;20.90;;;15.90;99.90;;;;;;2566517;23;20005;-71
2022/09/12 00:02:12;;;;;;;23.00;18.20;;;15.90;99.90;;;;;;2566890;23;20004;-71
2022/09/12 00:03:12;;;;;;;22.98;18.40;;;15.90;99.90;;;;;;2566035;23;20012;-71
2022/09/12 00:04:13;;;;;;;22.27;19.08;;;15.90;99.90;;;;;;2567692;23;20132;-71
2022/09/12 00:05:13;;;;;;;25.65;21.55;;;15.80;99.90;;;;;;2567680;23;20004;-71
2022/09/12 00:06:18;;;;;;;20.80;18.58;;;15.80;99.90;;;;;;2567532;23;20054;-71
2022/09/12 00:07:19;;;;;;;20.92;18.40;;;15.80;99.90;;;;;;2567892;23;20001;-71
2022/09/12 00:08:19;;;;;;;20.10;18.02;;;15.80;99.90;;;;;;2567187;23;20103;-71
2022/09/12 00:09:20;;;;;;;21.00;17.85;;;15.80;99.90;;;;;;2567530;23;20008;-71
2022/09/12 00:10:21;;;;;;;23.25;19.00;;;15.80;99.90;;;;;;2567603;23;20051;-72
2022/09/12 00:11:22;;;;;;;21.75;18.88;;;15.80;99.90;;;;;;2567626;23;20032;-71
2022/09/12 00:12:23;;;;;;;22.00;18.45;;;15.80;99.90;;;;;;2567475;23;20008;-71
2022/09/12 00:13:23;;;;;;;17.98;15.63;;;15.80;99.90;;;;;;2567376;23;19997;-71
2022/09/12 00:14:24;;;;;;;18.40;16.42;;;15.80;99.90;;;;;;2567306;23;19996;-71
2022/09/12 00:15:24;;;;;;;20.83;18.38;;;15.70;99.90;;;;;;2567708;23;20008;-71
2022/09/12 00:16:28;;;;;;;22.55;19.08;;;15.70;99.90;;;;;;2567003;23;20005;-71
2022/09/12 00:17:29;;;;;;;19.52;17.55;;;15.70;99.90;;;;;;2567606;23;20167;-71
2022/09/12 00:18:31;;;;;;;22.55;19.35;;;15.70;99.90;;;;;;2567726;23;20004;-71
2022/09/12 00:19:31;;;;;;;21.42;19.13;;;15.70;99.90;;;;;;2567492;23;20337;-71
2022/09/12 00:20:32;;;;;;;21.75;19.45;;;15.70;99.90;;;;;;2567534;23;20211;-71
2022/09/12 00:21:34;;;;;;;24.67;18.08;;;15.70;99.90;;;;;;2554495;23;20381;-71
2022/09/12 00:22:36;;;;;;;22.15;18.33;;;15.60;99.90;;;;;;2555287;23;20001;-71
2022/09/12 00:23:36;;;;;;;21.27;17.90;;;15.70;99.90;;;;;;2567048;23;20360;-71
2022/09/12 00:24:39;;;;;;;21.60;19.40;;;15.60;99.90;;;;;;2567407;23;20000;-71
2022/09/12 00:25:45;;;;;;;22.27;18.48;;;15.70;99.90;;;;;;2567429;23;20051;-71
2022/09/12 00:26:46;;;;;;;21.67;18.50;;;15.60;99.90;;;;;;2567691;23;20004;-72
2022/09/12 00:27:46;;;;;;;18.17;15.10;;;15.60;99.90;;;;;;2567680;23;20016;-71
2022/09/12 00:28:48;;;;;;;20.15;17.13;;;15.60;99.90;;;;;;2567186;23;20003;-71
2022/09/12 00:29:48;;;;;;;22.70;20.30;;;15.60;99.90;;;;;;2567695;23;20099;-71
2022/09/12 00:30:49;;;;;;;21.25;18.98;;;15.60;99.90;;;;;;2567739;23;20012;-71
2022/09/12 00:31:49;;;;;;;23.85;19.38;;;15.60;99.90;;;;;;2567558;23;20087;-71
2022/09/12 00:32:50;;;;;;;25.27;19.50;;;15.60;99.90;;;;;;2567449;23;20001;-71
2022/09/12 00:33:53;;;;;;;21.90;17.85;;;15.60;99.90;;;;;;2554071;23;20049;-71
2022/09/12 00:34:54;;;;;;;20.48;18.38;;;15.50;99.90;;;;;;2554503;23;20008;-71
2022/09/12 00:35:54;;;;;;;19.67;17.20;;;15.50;99.90;;;;;;2554483;23;20011;-71
2022/09/12 00:36:55;;;;;;;20.75;18.23;;;15.50;99.90;;;;;;2566389;23;19997;-71
2022/09/12 00:37:55;;;;;;;21.15;18.48;;;15.50;99.90;;;;;;2567110;23;20472;-71
2022/09/12 00:38:57;;;;;;;19.95;17.83;;;15.50;99.90;;;;;;2567686;23;20035;-71
2022/09/12 00:39:57;;;;;;;24.33;18.30;;;15.50;99.90;;;;;;2567515;23;20071;-71
2022/09/12 00:40:58;;;;;;;21.45;17.80;;;15.50;99.90;;;;;;2567556;23;20004;-71
2022/09/12 00:41:58;;;;;;;25.70;19.40;;;15.50;99.90;;;;;;2567194;23;20027;-71
2022/09/12 00:42:59;;;;;;;23.52;20.42;;;15.50;99.90;;;;;;2567091;23;20004;-71
2022/09/12 00:44:03;;;;;;;20.63;18.33;;;15.50;99.90;;;;;;2567702;23;20008;-71
2022/09/12 00:45:04;;;;;;;23.52;18.85;;;15.50;99.90;;;;;;2567453;23;20001;-71
2022/09/12 00:46:45;;;;;;;20.88;18.70;;;15.50;99.90;;;;;;2567279;23;20123;-71
2022/09/12 00:47:46;;;;;;;20.63;18.00;;;15.50;99.90;;;;;;2564827;23;20861;-71
2022/09/12 00:48:53;;;;;;;21.52;18.63;;;15.40;99.90;;;;;;2567534;23;20321;-71
2022/09/12 00:50:14;;;;;;;21.20;18.50;;;15.40;99.90;;;;;;2567558;23;20020;-71
2022/09/12 00:51:17;;;;;;;22.83;18.77;;;15.40;99.90;;;;;;2567331;23;20440;-71
2022/09/12 00:52:28;;;;;;;18.77;16.83;;;15.40;99.90;;;;;;2567413;23;20004;-71
2022/09/12 00:53:28;;;;;;;;;;;15.40;99.90;;;;;;2567232;23;20008;-71
2022/09/12 00:54:36;;;;;;;20.55;17.33;;;15.30;99.90;;;;;;2567732;23;19936;-71
2022/09/12 00:55:42;;;;;;;20.63;18.42;;;15.30;99.90;;;;;;2567255;23;20372;-71
2022/09/12 00:56:45;;;;;;;20.83;17.20;;;15.30;99.90;;;;;;2567409;23;20115;-71
2022/09/12 00:58:02;;;;;;;20.20;17.20;;;15.30;99.90;;;;;;2567667;23;19997;-71
2022/09/12 00:59:19;;;;;;;22.05;18.42;;;15.30;99.90;;;;;;2554291;23;20397;-71
2022/09/12 01:00:23;;;;;;;18.55;16.55;;;15.30;99.90;;;;;;2558290;23;20503;-71
2022/09/12 01:01:24;;;;;;;25.45;18.92;;;15.30;99.90;;;;;;2567092;23;20027;-71
2022/09/12 01:02:25;;;;;;;19.02;17.10;;;15.30;99.90;;;;;;2567202;23;20020;-71
2022/09/12 01:03:26;;;;;;;20.17;18.05;;;15.30;99.90;;;;;;2566926;23;20016;-71
2022/09/12 01:04:27;;;;;;;19.20;17.13;;;15.30;99.90;;;;;;2567445;23;20001;-71
2022/09/12 01:05:32;;;;;;;23.48;17.85;;;15.30;99.90;;;;;;2567699;23;20034;-71
2022/09/12 01:06:40;;;;;;;20.00;16.17;;;15.30;99.90;;;;;;2567391;23;20015;-71
2022/09/12 01:07:41;;;;;;;18.90;16.95;;;15.30;99.90;;;;;;2567348;23;20373;-71
2022/09/12 01:08:43;;;;;;;19.58;17.40;;;15.30;99.90;;;;;;2567809;23;19996;-71
2022/09/12 01:09:45;;;;;;;18.13;16.25;;;15.30;99.90;;;;;;2567610;23;20444;-71
2022/09/12 01:10:46;;;;;;;23.25;17.30;;;15.30;99.90;;;;;;2567055;23;20020;-71
2022/09/12 01:11:49;;;;;;;17.80;15.65;;;15.30;99.90;;;;;;2554387;23;20035;-71
2022/09/12 01:12:49;;;;;;;21.50;17.23;;;15.30;99.90;;;;;;2554751;23;20032;-71
2022/09/12 01:13:50;;;;;;;18.45;16.55;;;15.30;99.90;;;;;;2566646;23;20158;-71
2022/09/12 01:14:51;;;;;;;17.98;16.08;;;15.30;99.90;;;;;;2565669;23;20473;-71
2022/09/12 01:15:53;;;;;;;21.70;15.93;;;15.30;99.90;;;;;;2566688;23;20011;-71
2022/09/12 01:16:53;;;;;;;18.42;16.52;;;15.30;99.90;;;;;;2566986;23;20066;-71
2022/09/12 01:18:26;;;;;;;19.23;17.17;;;15.30;99.90;;;;;;2567626;23;20425;-71
2022/09/12 01:19:45;;;;;;;17.05;14.63;;;15.30;99.90;;;;;;2567568;23;20059;-71
2022/09/12 01:20:59;;;;;;;19.63;17.20;;;15.20;99.90;;;;;;2567134;23;20000;-71
2022/09/12 01:22:54;;;;;;;18.55;16.65;;;15.20;99.90;;;;;;2567266;23;20026;-71
2022/09/12 01:24:39;;;;;;;18.17;16.27;;;15.20;99.90;;;;;;2540841;23;20338;-71
2022/09/12 01:25:43;;;;;;;16.92;14.93;;;15.10;99.90;;;;;;2527446;23;20013;-72
2022/09/12 01:27:11;;;;;;;18.42;14.77;;;15.10;99.90;;;;;;2554803;23;20020;-72
2022/09/12 01:28:49;;;;;;;17.20;15.48;;;15.10;99.90;;;;;;2567829;23;20019;-71
2022/09/12 01:30:14;;;;;;;18.77;16.88;;;15.00;99.90;;;;;;2541042;23;20338;-71
2022/09/12 01:31:32;;;;;;;15.82;13.70;;;15.10;99.90;;;;;;2541320;23;20013;-71
2022/09/12 01:32:51;;;;;;;19.55;17.13;;;15.00;99.90;;;;;;2562330;23;20023;-71
2022/09/12 01:34:10;;;;;;;17.08;15.40;;;15.00;99.90;;;;;;2566707;23;20398;-71
2022/09/12 01:35:25;;;;;;;20.33;16.70;;;15.00;99.90;;;;;;2554232;23;20005;-71
2022/09/12 01:37:03;;;;;;;18.20;16.30;;;15.00;99.90;;;;;;2556930;23;20036;-71
2022/09/12 01:38:26;;;;;;;17.95;15.02;;;15.00;99.90;;;;;;2566412;23;20008;-71
2022/09/12 01:39:29;;;;;;;16.98;15.18;;;14.90;99.90;;;;;;2567275;23;20008;-71
2022/09/12 01:40:45;;;;;;;15.60;14.07;;;14.90;99.90;;;;;;2567489;23;20011;-71
2022/09/12 01:41:53;;;;;;;22.05;16.05;;;14.90;99.90;;;;;;2567250;23;19996;-71
2022/09/12 01:43:27;;;;;;;18.13;15.20;;;14.90;99.90;;;;;;2567494;23;20005;-71
2022/09/12 01:45:09;;;;;;;16.73;15.00;;;14.90;99.90;;;;;;2567404;23;20001;-72
2022/09/12 01:46:42;;;;;;;16.50;14.23;;;14.80;99.90;;;;;;2566908;23;19996;-71
2022/09/12 01:47:52;;;;;;;17.60;15.80;;;14.80;99.90;;;;;;2553304;23;20012;-71
2022/09/12 01:49:21;;;;;;;15.45;13.85;;;14.80;99.90;;;;;;2567334;23;20099;-71
2022/09/12 01:50:28;;;;;;;19.98;15.50;;;14.80;99.90;;;;;;2566477;23;20087;-71
2022/09/12 01:51:38;;;;;;;17.65;15.50;;;14.80;99.90;;;;;;2567276;23;20008;-71
2022/09/12 01:53:02;;;;;;;19.63;16.25;;;14.80;99.90;;;;;;2566946;23;20071;-71
2022/09/12 01:54:17;;;;;;;17.77;15.90;;;14.80;99.90;;;;;;2567049;23;20004;-71
2022/09/12 01:55:29;;;;;;;16.60;14.88;;;14.80;99.90;;;;;;2566938;23;20059;-71
2022/09/12 01:56:34;;;;;;;15.10;13.52;;;14.70;99.90;;;;;;2567284;23;20062;-71
2022/09/12 01:57:40;;;;;;;19.05;15.95;;;14.80;99.90;;;;;;2567175;23;20028;-71
2022/09/12 01:58:57;;;;;;;16.00;14.30;;;14.70;99.90;;;;;;2567437;23;20302;-71
2022/09/12 02:00:02;;;;;;;19.27;16.35;;;14.70;99.90;;;;;;2567292;23;20059;-71
2022/09/12 02:01:12;;;;;;;17.85;16.02;;;14.70;99.90;;;;;;2567031;23;20039;-71
2022/09/12 02:02:24;;;;;;;18.08;14.75;;;14.70;99.90;;;;;;2567364;23;20009;-71
2022/09/12 02:03:38;;;;;;;16.50;14.00;;;14.70;99.90;;;;;;2553288;23;20005;-71
2022/09/12 02:04:50;;;;;;;16.48;14.52;;;14.70;99.90;;;;;;2557227;23;20025;-71
2022/09/12 02:06:00;;;;;;;17.52;14.45;;;14.70;99.90;;;;;;2566847;23;20310;-71
2022/09/12 02:07:21;;;;;;;15.30;13.70;;;14.70;99.90;;;;;;2567527;23;20097;-71
2022/09/12 02:08:36;;;;;;;18.33;14.55;;;14.70;99.90;;;;;;2567390;23;20001;-71
2022/09/12 02:09:53;;;;;;;17.50;15.73;;;14.60;99.90;;;;;;2567293;23;20031;-71
2022/09/12 02:11:07;;;;;;;18.58;15.45;;;14.60;99.90;;;;;;2567176;23;20012;-71
2022/09/12 02:12:10;;;;;;;16.23;14.57;;;14.60;99.90;;;;;;2554087;23;20004;-71
2022/09/12 02:13:15;;;;;;;18.23;15.07;;;14.60;99.90;;;;;;2553683;23;20001;-71
2022/09/12 02:14:39;;;;;;;17.58;15.48;;;14.60;99.90;;;;;;2567316;23;20087;-72
2022/09/12 02:15:44;;;;;;;16.63;14.85;;;14.60;99.90;;;;;;2566262;23;19997;-71
2022/09/12 02:17:07;;;;;;;18.05;15.05;;;14.60;99.90;;;;;;2567223;23;20028;-71
2022/09/12 02:18:13;;;;;;;18.50;15.60;;;14.60;99.90;;;;;;2566670;23;20080;-71
2022/09/12 02:19:21;;;;;;;15.25;13.15;;;14.60;99.90;;;;;;2567307;23;20013;-71
2022/09/12 02:20:29;;;;;;;15.48;13.88;;;14.60;99.90;;;;;;2567280;23;20020;-71
2022/09/12 02:21:31;;;;;;;19.38;15.43;;;14.60;99.90;;;;;;2567279;23;20009;-71
2022/09/12 02:22:35;;;;;;;15.88;14.23;;;14.60;99.90;;;;;;2567066;23;20000;-71
2022/09/12 02:23:42;;;;;;;17.13;13.55;;;14.60;99.90;;;;;;2566445;23;20012;-71
2022/09/12 02:24:48;;;;;;;14.65;13.25;;;14.60;99.90;;;;;;2567043;23;20088;-71
2022/09/12 02:25:53;;;;;;;18.13;15.52;;;14.60;99.90;;;;;;2553492;23;20005;-71
2022/09/12 02:26:58;;;;;;;15.95;14.35;;;14.50;99.90;;;;;;2555112;23;20035;-71
2022/09/12 02:28:09;;;;;;;15.65;13.90;;;14.50;99.90;;;;;;2567073;23;20035;-71
2022/09/12 02:29:09;;;;;;;14.95;13.38;;;14.50;99.90;;;;;;2567271;23;20459;-71
2022/09/12 02:30:13;;;;;;;14.48;12.50;;;14.50;99.90;;;;;;2567330;23;20168;-71
2022/09/12 02:31:36;;;;;;;15.48;13.88;;;14.50;99.90;;;;;;2566836;23;20005;-71
2022/09/12 02:32:44;;;;;;;19.20;15.25;;;14.50;99.90;;;;;;2566893;23;20001;-71
2022/09/12 02:33:59;;;;;;;16.50;13.95;;;14.50;99.90;;;;;;2566522;23;20654;-71
2022/09/12 02:35:24;;;;;;;15.32;13.73;;;14.40;99.90;;;;;;2567137;23;20058;-71
2022/09/12 02:36:34;;;;;;;16.45;14.75;;;14.40;99.90;;;;;;2566802;23;20036;-71
2022/09/12 02:37:59;;;;;;;15.70;12.93;;;14.40;99.90;;;;;;2567101;23;20005;-71
2022/09/12 02:38:59;;;;;;;15.77;13.10;;;14.40;99.90;;;;;;2566789;23;20942;-71
2022/09/12 02:40:01;;;;;;;14.40;12.90;;;14.40;99.90;;;;;;2567011;23;20699;-71
2022/09/12 02:41:01;;;;;;;14.07;12.63;;;14.40;99.90;;;;;;2566783;23;20036;-72
2022/09/12 02:42:03;;;;;;;16.42;14.73;;;14.40;99.90;;;;;;2567115;23;20001;-72
2022/09/12 02:43:05;;;;;;;16.00;13.98;;;14.40;99.90;;;;;;2566760;23;20000;-71
2022/09/12 02:44:05;;;;;;;17.45;14.73;;;14.40;99.90;;;;;;2567126;23;20432;-71
2022/09/12 02:45:07;;;;;;;18.25;15.05;;;14.40;99.90;;;;;;2566885;23;20279;-71
2022/09/12 02:46:12;;;;;;;15.15;13.60;;;14.30;99.90;;;;;;2566764;23;20035;-71
2022/09/12 02:47:29;;;;;;;14.40;12.70;;;14.30;99.90;;;;;;2567002;23;20000;-71
2022/09/12 02:48:35;;;;;;;18.02;14.52;;;14.30;99.90;;;;;;2567103;23;20510;-71
2022/09/12 02:49:36;;;;;;;13.43;12.02;;;14.30;99.90;;;;;;2567093;23;20024;-71
2022/09/12 02:50:37;;;;;;;16.75;14.73;;;14.30;99.90;;;;;;2553844;23;20147;-71
2022/09/12 02:51:38;;;;;;;16.23;13.30;;;14.30;99.90;;;;;;2553995;23;20358;-71
2022/09/12 02:52:40;;;;;;;15.80;14.13;;;14.30;99.90;;;;;;2566405;23;20064;-71
2022/09/12 02:53:41;;;;;;;18.85;14.50;;;14.30;99.90;;;;;;2566356;23;20032;-71
2022/09/12 02:54:42;;;;;;;16.08;13.60;;;14.30;99.90;;;;;;2567217;23;20005;-71
2022/09/12 02:55:43;;;;;;;17.58;14.55;;;14.30;99.90;;;;;;2566726;23;20043;-71
2022/09/12 02:56:45;;;;;;;15.73;13.52;;;14.30;99.90;;;;;;2566873;23;20031;-71
2022/09/12 02:57:45;;;;;;;14.35;12.15;;;14.30;99.90;;;;;;2567122;23;20307;-71
2022/09/12 02:58:47;;;;;;;15.52;13.73;;;14.30;99.90;;;;;;2567237;23;20034;-71
2022/09/12 02:59:50;;;;;;;16.83;14.07;;;14.20;99.90;;;;;;2567322;23;20394;-71
2022/09/12 03:00:54;;;;;;;15.48;12.43;;;14.20;99.90;;;;;;2566958;23;20083;-71
2022/09/12 03:02:19;;;;;;;14.85;13.32;;;14.20;99.90;;;;;;2566820;23;20008;-71
2022/09/12 03:04:05;;;;;;;16.75;13.50;;;14.20;99.90;;;;;;2566266;23;20318;-71
2022/09/12 03:05:50;;;;;;;15.55;13.85;;;14.10;99.90;;;;;;2566993;23;20012;-71
2022/09/12 03:07:12;;;;;;;19.52;14.23;;;14.10;99.90;;;;;;2541166;23;20052;-71
2022/09/12 03:08:30;;;;;;;13.98;12.55;;;14.10;99.90;;;;;;2566859;23;20015;-71
2022/09/12 03:09:52;;;;;;;14.88;13.45;;;14.10;99.90;;;;;;2554084;23;20016;-71
2022/09/12 03:11:27;;;;;;;14.27;12.70;;;14.10;99.90;;;;;;2558363;23;20005;-71
2022/09/12 03:12:43;;;;;;;13.57;11.93;;;14.00;99.90;;;;;;2541321;23;20355;-71
2022/09/12 03:14:21;;;;;;;17.70;13.95;;;14.00;99.90;;;;;;2567006;23;20626;-71
2022/09/12 03:15:30;;;;;;;13.90;12.50;;;14.00;99.90;;;;;;2541121;23;20804;-71
2022/09/12 03:16:47;;;;;;;15.32;13.80;;;14.00;99.90;;;;;;2540708;23;20033;-71
2022/09/12 03:18:16;;;;;;;15.70;13.25;;;14.00;99.90;;;;;;2553718;23;20003;-71
2022/09/12 03:19:51;;;;;;;14.88;13.00;;;14.00;99.90;;;;;;2567189;23;20070;-71
2022/09/12 03:21:35;;;;;;;14.73;12.10;;;14.00;99.90;;;;;;2566699;23;20370;-71
2022/09/12 03:22:45;;;;;;;14.60;13.00;;;13.90;99.90;;;;;;2566135;23;20087;-71
2022/09/12 03:23:50;;;;;;;14.80;13.27;;;13.90;99.90;;;;;;2566115;23;20004;-71
2022/09/12 03:25:00;;;;;;;14.27;12.70;;;13.90;99.90;;;;;;2567368;23;20001;-71
2022/09/12 03:26:08;;;;;;;20.23;14.60;;;13.90;99.90;;;;;;2567067;23;20377;-71
2022/09/12 03:27:15;;;;;;;15.85;13.85;;;13.90;99.90;;;;;;2567137;23;20273;-71
2022/09/12 03:28:16;;;;;;;17.50;14.30;;;13.90;99.90;;;;;;2567065;23;20005;-71
2022/09/12 03:29:18;;;;;;;14.80;13.30;;;13.90;99.90;;;;;;2567257;23;20008;-71
2022/09/12 03:30:19;;;;;;;14.65;13.02;;;13.90;99.90;;;;;;2567197;23;20016;-71
2022/09/12 03:31:21;;;;;;;15.10;13.60;;;13.90;99.90;;;;;;2566891;23;20004;-71
2022/09/12 03:32:46;;;;;;;15.27;13.30;;;13.90;99.90;;;;;;2566788;23;19997;-71
2022/09/12 03:33:47;;;;;;;15.15;12.80;;;13.90;99.90;;;;;;2566807;23;20000;-71
2022/09/12 03:34:47;;;;;;;13.98;12.55;;;13.90;99.90;;;;;;2566910;23;19997;-71
2022/09/12 03:35:49;;;;;;;13.50;12.05;;;13.90;99.90;;;;;;2566704;23;20072;-71
2022/09/12 03:36:50;;;;;;;14.32;12.15;;;13.90;99.90;;;;;;2566991;23;20007;-71
2022/09/12 03:37:52;;;;;;;15.73;14.15;;;13.90;99.90;;;;;;2567292;23;20429;-71
2022/09/12 03:38:53;;;;;;;14.82;13.27;;;13.90;99.90;;;;;;2568151;23;20325;-71
2022/09/12 03:39:53;;;;;;;14.48;13.07;;;13.90;99.90;;;;;;2567729;23;20013;-71
2022/09/12 03:40:54;;;;;;;14.13;12.73;;;13.90;99.90;;;;;;2567405;23;20011;-73
2022/09/12 03:41:55;;;;;;;15.57;13.23;;;13.90;99.90;;;;;;2567645;23;20406;-71
2022/09/12 03:42:55;;;;;;;17.25;14.82;;;13.90;99.90;;;;;;2568018;23;20011;-71
2022/09/12 03:43:56;;;;;;;15.23;13.77;;;13.90;99.90;;;;;;2554158;23;20040;-71
2022/09/12 03:44:56;;;;;;;15.63;14.07;;;13.90;99.90;;;;;;2554399;23;20005;-71
2022/09/12 03:45:57;;;;;;;16.42;14.73;;;13.90;99.90;;;;;;2567425;23;20008;-71
2022/09/12 03:46:57;;;;;;;16.38;13.90;;;13.90;99.90;;;;;;2567543;23;20005;-71
2022/09/12 03:47:58;;;;;;;13.93;12.40;;;13.90;99.90;;;;;;2567630;23;20009;-71
2022/09/12 03:48:59;;;;;;;14.48;12.30;;;13.90;99.90;;;;;;2567391;23;20108;-71
2022/09/12 03:49:59;;;;;;;15.20;13.57;;;13.90;99.90;;;;;;2568083;23;20010;-71
2022/09/12 03:51:03;;;;;;;13.55;11.43;;;13.90;99.90;;;;;;2554129;23;20068;-73
2022/09/12 03:52:03;;;;;;;15.15;13.65;;;13.90;99.90;;;;;;2554890;23;20009;-71
2022/09/12 03:53:04;;;;;;;14.25;12.75;;;13.90;99.90;;;;;;2567439;23;20051;-71
2022/09/12 03:54:05;;;;;;;14.55;13.05;;;13.90;99.90;;;;;;2567747;23;20049;-71
2022/09/12 03:55:06;;;;;;;16.55;14.93;;;13.90;99.90;;;;;;2567860;23;20654;-71
2022/09/12 03:56:09;;;;;;;16.30;14.35;;;13.90;99.90;;;;;;2554136;23;20500;-71
2022/09/12 03:57:09;;;;;;;16.48;13.77;;;13.90;99.90;;;;;;2554249;23;20124;-71
2022/09/12 03:58:10;;;;;;;14.85;13.27;;;13.90;99.90;;;;;;2554920;23;20075;-71
2022/09/12 03:59:11;;;;;;;14.90;13.27;;;14.00;99.90;;;;;;2554234;23;20009;-71
2022/09/12 04:00:12;;;;;;;15.38;13.85;;;13.90;99.90;;;;;;2554471;23;20456;-71
2022/09/12 04:01:18;;;;;;;17.77;13.57;;;13.90;99.90;;;;;;2567526;23;20413;-73
2022/09/12 04:02:18;;;;;;;17.65;15.80;;;13.90;99.90;;;;;;2567793;23;20012;-71
2022/09/12 04:03:19;;;;;;;16.17;13.77;;;13.90;99.90;;;;;;2566805;23;20000;-71
2022/09/12 04:04:19;;;;;;;14.15;12.77;;;13.90;99.90;;;;;;2567859;23;20000;-71
2022/09/12 04:05:20;;;;;;;17.67;15.25;;;13.90;99.90;;;;;;2554489;23;20393;-71
2022/09/12 04:06:21;;;;;;;18.60;14.77;;;13.90;99.90;;;;;;2554503;23;20008;-71
2022/09/12 04:07:22;;;;;;;15.30;13.57;;;13.90;99.90;;;;;;2567801;23;20004;-71
2022/09/12 04:08:23;;;;;;;14.45;12.93;;;13.90;99.90;;;;;;2567653;23;20338;-71
2022/09/12 04:09:23;;;;;;;15.40;13.60;;;13.90;99.90;;;;;;2567693;23;20032;-71
2022/09/12 04:10:24;;;;;;;15.15;13.23;;;14.00;99.90;;;;;;2567716;23;20333;-70
2022/09/12 04:11:24;;;;;;;15.63;14.00;;;13.90;99.90;;;;;;2567129;23;20020;-71
2022/09/12 04:12:25;;;;;;;14.98;13.32;;;13.90;99.90;;;;;;2554407;23;20110;-71
2022/09/12 04:13:25;;;;;;;16.20;13.50;;;14.00;99.90;;;;;;2554000;23;20035;-71
2022/09/12 04:14:26;;;;;;;19.83;14.18;;;14.00;99.90;;;;;;2567551;23;20084;-71
2022/09/12 04:15:26;;;;;;;16.85;13.77;;;13.90;99.90;;;;;;2567156;23;20001;-71
2022/09/12 04:16:27;;;;;;;16.30;14.35;;;13.90;99.90;;;;;;2567168;23;19996;-71
2022/09/12 04:17:27;;;;;;;15.35;13.80;;;14.00;99.90;;;;;;2567572;23;20324;-71
2022/09/12 04:18:28;;;;;;;16.50;13.45;;;13.90;99.90;;;;;;2567425;23;20008;-71
2022/09/12 04:19:29;;;;;;;15.02;13.43;;;14.00;99.90;;;;;;2567166;23;20001;-71
2022/09/12 04:20:29;;;;;;;15.93;14.32;;;14.00;99.90;;;;;;2567697;23;20016;-71
2022/09/12 04:21:30;;;;;;;17.05;15.25;;;14.00;99.90;;;;;;2567556;23;20079;-71
2022/09/12 04:22:32;;;;;;;18.25;15.57;;;14.00;99.90;;;;;;2567837;23;20004;-71
2022/09/12 04:23:33;;;;;;;18.77;16.25;;;14.00;99.90;;;;;;2566621;23;20003;-71
2022/09/12 04:24:33;;;;;;;21.20;16.85;;;14.00;99.90;;;;;;2567828;23;20005;-71
2022/09/12 04:25:34;;;;;;;21.33;16.10;;;14.00;99.90;;;;;;2567321;23;20000;-71
2022/09/12 04:26:35;;;;;;;23.58;17.45;;;14.00;99.90;;;;;;2567269;23;20007;-71
2022/09/12 04:27:35;;;;;;;18.75;16.58;;;14.10;99.90;;;;;;2567644;23;20012;-71
2022/09/12 04:28:37;;;;;;;19.80;17.38;;;14.10;99.90;;;;;;2567736;23;20007;-71
2022/09/12 04:29:37;;;;;;;19.48;17.00;;;14.10;99.90;;;;;;2567319;23;20751;-71
2022/09/12 04:30:38;;;;;;;20.90;16.95;;;14.10;99.90;;;;;;2567325;23;20413;-71
2022/09/12 04:31:38;;;;;;;21.83;17.15;;;14.10;99.90;;;;;;2567687;23;20417;-71
2022/09/12 04:32:40;;;;;;;21.23;16.73;;;14.10;99.90;;;;;;2567610;23;20011;-71
2022/09/12 04:33:40;;;;;;;18.10;16.17;;;14.10;99.90;;;;;;2567087;23;20306;-71
2022/09/12 04:34:45;;;;;;;18.73;16.70;;;14.10;99.90;;;;;;2567558;23;20035;-71
2022/09/12 04:35:47;;;;;;;18.48;16.52;;;14.10;99.90;;;;;;2554242;23;20001;-71
2022/09/12 04:36:47;;;;;;;18.88;16.50;;;14.10;99.90;;;;;;2554362;23;20001;-71
2022/09/12 04:37:48;;;;;;;17.83;15.73;;;14.20;99.90;;;;;;2567513;23;20099;-71
2022/09/12 04:38:49;;;;;;;18.70;16.70;;;14.20;99.90;;;;;;2567699;23;20070;-71
2022/09/12 04:39:50;;;;;;;18.48;16.65;;;14.20;99.90;;;;;;2567466;23;20009;-71
2022/09/12 04:40:51;;;;;;;20.25;16.70;;;14.20;99.90;;;;;;2567460;23;20027;-71
2022/09/12 04:41:51;;;;;;;21.25;16.08;;;14.20;99.90;;;;;;2567442;23;20396;-73
2022/09/12 04:42:54;;;;;;;18.58;16.30;;;14.20;99.90;;;;;;2567429;23;20001;-71
2022/09/12 04:43:58;;;;;;;18.67;16.08;;;14.20;99.90;;;;;;2554086;23;20092;-73
2022/09/12 04:44:58;;;;;;;19.35;15.50;;;14.20;99.90;;;;;;2554978;23;20009;-74
2022/09/12 04:46:07;;;;;;;17.40;15.43;;;14.20;99.90;;;;;;2567228;23;20004;-71
2022/09/12 04:47:08;;;;;;;18.42;16.42;;;14.30;99.90;;;;;;2567546;23;20000;-72
2022/09/12 04:48:08;;;;;;;21.10;15.75;;;14.30;99.90;;;;;;2567249;23;20023;-71
2022/09/12 04:49:10;;;;;;;17.75;15.95;;;14.30;99.90;;;;;;2567224;23;20032;-71
2022/09/12 04:50:11;;;;;;;17.90;15.93;;;14.30;99.90;;;;;;2566990;23;20032;-71
2022/09/12 04:51:12;;;;;;;17.83;15.68;;;14.30;99.90;;;;;;2567682;23;19997;-71
2022/09/12 04:52:12;;;;;;;19.17;15.98;;;14.30;99.90;;;;;;2567559;23;20329;-71
2022/09/12 04:53:13;;;;;;;19.80;15.43;;;14.30;99.90;;;;;;2566643;23;20051;-71
2022/09/12 04:54:16;;;;;;;18.67;15.65;;;14.30;99.90;;;;;;2567541;23;20107;-71
2022/09/12 04:55:17;;;;;;;16.88;15.23;;;14.40;99.90;;;;;;2567378;23;20080;-71
2022/09/12 04:56:18;;;;;;;16.45;14.68;;;14.40;99.90;;;;;;2567151;23;20502;-71
2022/09/12 04:57:19;;;;;;;16.95;15.18;;;14.40;99.90;;;;;;2567483;23;20029;-71
2022/09/12 04:58:19;;;;;;;17.70;15.27;;;14.40;99.90;;;;;;2567236;23;20028;-72
2022/09/12 04:59:23;;;;;;;17.63;15.18;;;14.40;99.90;;;;;;2567505;23;20011;-73
2022/09/12 05:00:23;;;;;;;20.52;15.98;;;14.40;99.90;;;;;;2567404;23;20009;-71
2022/09/12 05:01:24;;;;;;;17.35;14.75;;;14.40;99.90;;;;;;2567042;23;20028;-72
2022/09/12 05:02:25;;;;;;;17.27;15.48;;;14.50;99.90;;;;;;2567583;23;20013;-72
2022/09/12 05:03:27;;;;;;;15.77;14.23;;;14.50;99.90;;;;;;2567091;23;20009;-73
2022/09/12 05:04:27;;;;;;;18.13;15.07;;;14.50;99.90;;;;;;2567037;23;20008;-72
2022/09/12 05:05:28;;;;;;;17.20;15.07;;;14.50;99.90;;;;;;2567599;23;20012;-72
2022/09/12 05:06:32;;;;;;;16.10;14.48;;;14.50;99.90;;;;;;2567382;23;20424;-71
2022/09/12 05:07:32;;;;;;;17.20;15.05;;;14.50;99.90;;;;;;2567460;23;20001;-72
2022/09/12 05:08:34;;;;;;;16.45;14.65;;;14.50;99.90;;;;;;2567680;23;20065;-72
2022/09/12 05:09:34;;;;;;;16.17;13.95;;;14.50;99.90;;;;;;2553983;23;20013;-72
2022/09/12 05:10:35;;;;;;;20.95;14.75;;;14.50;99.90;;;;;;2554633;23;19997;-72
2022/09/12 05:11:38;;;;;;;16.33;14.63;;;14.50;99.90;;;;;;2553571;23;20092;-72
2022/09/12 05:12:38;;;;;;;16.67;14.38;;;14.50;99.90;;;;;;2554538;23;20012;-72
2022/09/12 05:13:39;;;;;;;19.98;15.75;;;14.60;99.90;;;;;;2566931;23;19997;-72
2022/09/12 05:14:40;;;;;;;21.40;14.88;;;14.50;99.90;;;;;;2567665;23;20003;-72
2022/09/12 05:15:41;;;;;;;17.25;14.95;;;14.60;99.90;;;;;;2566598;23;20007;-72
2022/09/12 05:16:42;;;;;;;16.00;14.32;;;14.60;99.90;;;;;;2554235;23;19993;-72
2022/09/12 05:17:42;;;;;;;16.38;14.60;;;14.60;99.90;;;;;;2554323;23;20001;-72
2022/09/12 05:18:45;;;;;;;19.33;15.77;;;14.60;99.90;;;;;;2567325;23;20001;-72
2022/09/12 05:19:46;;;;;;;20.10;14.70;;;14.60;99.90;;;;;;2566937;23;20036;-72
2022/09/12 05:20:47;;;;;;;16.67;14.52;;;14.60;99.90;;;;;;2567041;23;20007;-72
2022/09/12 05:21:48;;;;;;;16.45;13.95;;;14.60;99.90;;;;;;2553989;23;20009;-72
2022/09/12 05:22:48;;;;;;;17.10;13.45;;;14.60;99.90;;;;;;2554175;23;20001;-72
2022/09/12 05:23:53;;;;;;;15.82;14.23;;;14.70;99.90;;;;;;2553346;23;20360;-72
2022/09/12 05:24:54;;;;;;;19.65;14.48;;;14.70;99.90;;;;;;2555191;23;20705;-72
2022/09/12 05:25:56;;;;;;;19.75;15.07;;;14.70;99.90;;;;;;2566815;23;20688;-72
2022/09/12 05:26:57;;;;;;;14.68;12.90;;;14.70;99.90;;;;;;2553774;23;20032;-72
2022/09/12 05:27:58;;;;;;;15.63;13.55;;;14.70;99.90;;;;;;2554281;23;20005;-72
2022/09/12 05:28:58;;;;;;;14.85;13.18;;;14.70;99.90;;;;;;2554150;23;20442;-72
2022/09/12 05:29:59;;;;;;;13.90;12.50;;;14.70;99.90;;;;;;2554125;23;20005;-72
2022/09/12 05:31:13;;;;;;;15.25;13.60;;;14.80;99.90;;;;;;2567024;23;20079;-72
2022/09/12 05:32:14;;;;;;;16.35;12.77;;;14.80;99.90;;;;;;2567277;23;20009;-72
2022/09/12 05:33:15;;;;;;;14.32;12.95;;;14.80;99.90;;;;;;2566716;23;20008;-72
2022/09/12 05:34:15;;;;;;;14.10;12.60;;;14.80;99.90;;;;;;2567161;23;20004;-72
2022/09/12 05:35:17;;;;;;;16.05;12.98;;;14.80;99.90;;;;;;2567060;23;20008;-72
2022/09/12 05:36:28;;;;;;;15.18;13.57;;;14.80;99.90;;;;;;2566797;23;20080;-72
2022/09/12 05:37:29;;;;;;;16.83;12.90;;;14.90;99.90;;;;;;2567471;23;20334;-72